createdAt,value
2019-01-23T00:02:01.336Z,-4.60
2019-01-23T00:04:32.079Z,-4.50
2019-01-23T00:07:02.944Z,-4.50
2019-01-23T00:09:33.678Z,-4.60
2019-01-23T00:12:04.470Z,-4.60
2019-01-23T00:14:35.331Z,-4.60
2019-01-23T00:17:06.231Z,-4.60
2019-01-23T00:19:36.918Z,-4.70
2019-01-23T00:22:07.719Z,-4.70
2019-01-23T00:24:38.261Z,-4.70
2019-01-23T00:27:09.352Z,-4.80
2019-01-23T00:29:40.245Z,-4.70
2019-01-23T00:32:10.957Z,-4.80
2019-01-23T00:34:41.601Z,-4.80
2019-01-23T00:37:13.248Z,-4.80
2019-01-23T00:39:44.120Z,-4.80
2019-01-23T00:42:15.028Z,-4.90
2019-01-23T00:44:48.500Z,-4.90
2019-01-23T00:47:22.310Z,-4.90
2019-01-23T00:49:53.193Z,-4.90
2019-01-23T00:52:24.905Z,-5.00
2019-01-23T00:55:00.205Z,-5.00
2019-01-23T00:57:30.959Z,-5.10
2019-01-23T01:00:01.813Z,-5.10
2019-01-23T01:02:32.907Z,-5.10
2019-01-23T01:05:03.821Z,-5.10
2019-01-23T01:07:34.887Z,-5.10
2019-01-23T01:10:07.716Z,-5.10
2019-01-23T01:12:38.650Z,-5.20
2019-01-23T01:15:13.279Z,-5.20
2019-01-23T01:17:42.130Z,-5.30
2019-01-23T01:20:12.818Z,-5.30
2019-01-23T01:22:43.768Z,-5.30
2019-01-23T01:25:15.867Z,-5.30
2019-01-23T01:27:46.606Z,-5.30
2019-01-23T01:30:19.161Z,-5.40
2019-01-23T01:32:49.944Z,-5.40
2019-01-23T01:35:20.804Z,-5.40
2019-01-23T01:37:51.481Z,-5.40
2019-01-23T01:40:22.195Z,-5.40
2019-01-23T01:42:52.899Z,-5.40
2019-01-23T01:45:23.632Z,-5.50
2019-01-23T01:47:54.499Z,-5.50
2019-01-23T01:50:25.193Z,-5.50
2019-01-23T01:52:55.955Z,-5.40
2019-01-23T01:55:26.845Z,-5.40
2019-01-23T01:58:00.547Z,-5.40
2019-01-23T02:00:31.200Z,-5.40
2019-01-23T02:03:02.115Z,-5.40
2019-01-23T02:05:32.981Z,-5.40
2019-01-23T02:08:03.898Z,-5.40
2019-01-23T02:10:34.661Z,-5.40
2019-01-23T02:13:05.476Z,-5.40
2019-01-23T02:15:36.215Z,-5.40
2019-01-23T02:18:07.117Z,-5.30
2019-01-23T02:20:37.891Z,-5.30
2019-01-23T02:23:08.657Z,-5.30
2019-01-23T02:25:39.369Z,-5.20
2019-01-23T02:28:10.225Z,-5.20
2019-01-23T02:30:40.959Z,-5.20
2019-01-23T02:33:11.677Z,-5.20
2019-01-23T02:35:42.404Z,-5.10
2019-01-23T02:38:13.175Z,-5.10
2019-01-23T02:40:44.098Z,-5.00
2019-01-23T02:43:14.965Z,-5.00
2019-01-23T02:45:45.726Z,-4.90
2019-01-23T02:48:16.790Z,-4.90
2019-01-23T02:50:47.484Z,-4.80
2019-01-23T02:53:18.299Z,-4.90
2019-01-23T02:55:49.064Z,-4.90
2019-01-23T02:58:19.871Z,-4.90
2019-01-23T03:00:50.634Z,-4.80
2019-01-23T03:03:21.443Z,-4.80
2019-01-23T03:05:52.222Z,-4.80
2019-01-23T03:08:23.301Z,-4.90
2019-01-23T03:10:54.203Z,-4.90
2019-01-23T03:13:24.961Z,-4.90
2019-01-23T03:15:56.618Z,-4.80
2019-01-23T03:18:27.369Z,-4.80
2019-01-23T03:20:57.935Z,-4.90
2019-01-23T03:23:28.830Z,-4.90
2019-01-23T03:25:59.608Z,-4.80
2019-01-23T03:28:30.709Z,-4.90
2019-01-23T03:31:01.611Z,-4.80
2019-01-23T03:33:32.377Z,-4.90
2019-01-23T03:36:03.073Z,-4.90
2019-01-23T03:38:33.828Z,-4.90
2019-01-23T03:41:04.628Z,-4.80
2019-01-23T03:43:35.387Z,-4.90
2019-01-23T03:46:06.187Z,-4.90
2019-01-23T03:48:36.995Z,-5.00
2019-01-23T03:51:07.829Z,-4.90
2019-01-23T03:53:39.818Z,-5.00
2019-01-23T03:56:10.567Z,-5.00
2019-01-23T03:58:41.351Z,-4.90
2019-01-23T04:01:11.840Z,-4.80
2019-01-23T04:03:42.696Z,-4.90
2019-01-23T04:06:13.352Z,-4.90
2019-01-23T04:08:44.214Z,-4.90
2019-01-23T04:11:14.751Z,-4.90
2019-01-23T04:13:45.847Z,-5.00
2019-01-23T04:16:16.619Z,-4.90
2019-01-23T04:18:50.216Z,-4.90
2019-01-23T04:21:21.661Z,-4.90
2019-01-23T04:23:52.429Z,-5.00
2019-01-23T04:26:23.162Z,-5.00
2019-01-23T04:28:54.113Z,-5.00
2019-01-23T04:31:24.684Z,-5.00
2019-01-23T04:33:55.806Z,-5.00
2019-01-23T04:36:26.580Z,-4.90
2019-01-23T04:38:57.482Z,-5.00
2019-01-23T04:41:28.247Z,-5.00
2019-01-23T04:43:59.175Z,-5.00
2019-01-23T04:46:29.868Z,-5.00
2019-01-23T04:49:00.530Z,-5.00
2019-01-23T04:52:02.488Z,-5.00
2019-01-23T04:54:33.377Z,-5.00
2019-01-23T04:57:04.069Z,-5.00
2019-01-23T04:59:34.932Z,-5.00
2019-01-23T05:02:05.750Z,-5.00
2019-01-23T05:04:36.663Z,-5.10
2019-01-23T05:07:07.321Z,-5.10
2019-01-23T05:09:38.118Z,-5.20
2019-01-23T05:12:08.826Z,-5.10
2019-01-23T05:14:39.658Z,-5.10
2019-01-23T05:17:10.267Z,-5.10
2019-01-23T05:19:41.054Z,-5.20
2019-01-23T05:22:11.605Z,-5.30
2019-01-23T05:24:42.409Z,-5.40
2019-01-23T05:27:13.083Z,-5.40
2019-01-23T05:29:43.892Z,-5.40
2019-01-23T05:32:14.659Z,-5.50
2019-01-23T05:34:45.386Z,-5.50
2019-01-23T05:37:16.114Z,-5.60
2019-01-23T05:39:46.896Z,-5.60
2019-01-23T05:42:17.486Z,-5.60
2019-01-23T05:44:48.275Z,-5.70
2019-01-23T05:47:19.086Z,-5.70
2019-01-23T05:49:49.958Z,-5.70
2019-01-23T05:52:20.717Z,-5.70
2019-01-23T05:54:51.544Z,-5.80
2019-01-23T05:57:24.434Z,-5.80
2019-01-23T06:00:02.121Z,-5.80
2019-01-23T06:02:27.721Z,-5.80
2019-01-23T06:04:58.454Z,-5.90
2019-01-23T06:07:29.106Z,-5.90
2019-01-23T06:09:59.889Z,-5.90
2019-01-23T06:12:30.651Z,-5.90
2019-01-23T06:15:01.489Z,-6.00
2019-01-23T06:17:32.375Z,-6.00
2019-01-23T06:20:02.943Z,-6.10
2019-01-23T06:22:33.625Z,-6.20
2019-01-23T06:25:04.407Z,-6.20
2019-01-23T06:27:35.008Z,-6.20
2019-01-23T06:30:10.480Z,-6.20
2019-01-23T06:32:41.003Z,-6.30
2019-01-23T06:35:11.866Z,-6.40
2019-01-23T06:37:42.610Z,-6.40
2019-01-23T06:40:13.494Z,-6.40
2019-01-23T06:42:44.187Z,-6.40
2019-01-23T06:45:15.883Z,-6.40
2019-01-23T06:47:46.853Z,-6.40
2019-01-23T06:50:19.181Z,-6.40
2019-01-23T06:52:49.963Z,-6.40
2019-01-23T06:55:20.776Z,-6.50
2019-01-23T06:57:51.572Z,-6.40
2019-01-23T07:00:26.378Z,-6.40
2019-01-23T07:02:57.225Z,-6.40
2019-01-23T07:05:28.020Z,-6.40
2019-01-23T07:07:58.794Z,-6.40
2019-01-23T07:10:29.587Z,-6.40
2019-01-23T07:13:00.355Z,-6.30
2019-01-23T07:15:31.146Z,-6.30
2019-01-23T07:18:01.852Z,-6.40
2019-01-23T07:20:32.618Z,-6.30
2019-01-23T07:23:03.394Z,-6.30
2019-01-23T07:25:34.216Z,-6.30
2019-01-23T07:28:04.993Z,-6.20
2019-01-23T07:30:41.086Z,-6.10
2019-01-23T07:33:11.856Z,-6.10
2019-01-23T07:35:42.637Z,-6.00
2019-01-23T07:38:13.317Z,-6.00
2019-01-23T07:40:44.007Z,-5.90
2019-01-23T07:43:14.917Z,-5.90
2019-01-23T07:45:45.705Z,-5.90
2019-01-23T07:48:17.113Z,-5.80
2019-01-23T07:50:47.900Z,-5.70
2019-01-23T07:53:18.636Z,-5.70
2019-01-23T07:55:49.361Z,-5.70
2019-01-23T07:58:20.118Z,-5.70
2019-01-23T08:00:50.892Z,-5.70
2019-01-23T08:03:21.685Z,-5.60
2019-01-23T08:05:52.608Z,-5.50
2019-01-23T08:08:23.330Z,-5.50
2019-01-23T08:10:54.095Z,-5.40
2019-01-23T08:13:24.953Z,-5.40
2019-01-23T08:15:55.634Z,-5.30
2019-01-23T08:18:26.450Z,-5.30
2019-01-23T08:20:57.273Z,-5.20
2019-01-23T08:23:27.948Z,-5.10
2019-01-23T08:25:58.843Z,-5.10
2019-01-23T08:28:29.613Z,-5.00
2019-01-23T08:31:00.452Z,-4.90
2019-01-23T08:33:31.182Z,-4.90
2019-01-23T08:36:01.977Z,-4.80
2019-01-23T08:38:32.775Z,-4.70
2019-01-23T08:41:03.582Z,-4.70
2019-01-23T08:43:34.420Z,-4.70
2019-01-23T08:46:05.330Z,-4.60
2019-01-23T08:48:36.087Z,-4.60
2019-01-23T08:51:06.692Z,-4.50
2019-01-23T08:53:37.485Z,-4.40
2019-01-23T08:56:08.431Z,-4.40
2019-01-23T08:58:39.134Z,-4.40
2019-01-23T09:01:10.040Z,-4.30
2019-01-23T09:03:40.906Z,-4.20
2019-01-23T09:06:11.716Z,-4.10
2019-01-23T09:08:42.519Z,-4.20
2019-01-23T09:11:13.306Z,-4.10
2019-01-23T09:13:44.031Z,-4.10
2019-01-23T09:16:14.827Z,-4.10
2019-01-23T09:18:45.429Z,-4.10
2019-01-23T09:21:16.192Z,-4.00
2019-01-23T09:23:46.975Z,-3.90
2019-01-23T09:26:17.877Z,-3.80
2019-01-23T09:28:48.737Z,-3.50
2019-01-23T09:31:44.610Z,-3.50
2019-01-23T09:34:59.295Z,-3.40
2019-01-23T09:38:14.060Z,-3.20
2019-01-23T09:41:12.851Z,-2.90
2019-01-23T09:44:30.076Z,-2.70
2019-01-23T09:47:17.912Z,-2.30
2019-01-23T09:50:29.907Z,-2.00
2019-01-23T09:53:11.981Z,-1.90
2019-01-23T09:55:42.898Z,-1.70
2019-01-23T09:58:13.680Z,-1.70
2019-01-23T10:00:44.360Z,-1.70
2019-01-23T10:03:15.237Z,-1.50
2019-01-23T10:05:45.896Z,-1.40
2019-01-23T10:08:16.712Z,-1.30
2019-01-23T10:10:47.473Z,-1.20
2019-01-23T10:13:18.385Z,-1.00
2019-01-23T10:16:11.130Z,-1.10
2019-01-23T10:18:41.976Z,-1.00
2019-01-23T10:21:12.706Z,-0.70
2019-01-23T10:23:43.482Z,-0.40
2019-01-23T10:26:14.115Z,-0.20
2019-01-23T10:28:44.775Z,-0.30
2019-01-23T10:31:15.438Z,-0.20
2019-01-23T10:33:46.363Z,-0.20
2019-01-23T10:36:17.124Z,-0.10
2019-01-23T10:38:47.944Z,0.10
2019-01-23T10:41:18.704Z,0.10
2019-01-23T10:43:49.504Z,0.00
2019-01-23T10:46:20.256Z,0.10
2019-01-23T10:48:51.046Z,0.10
2019-01-23T10:51:21.578Z,0.30
2019-01-23T10:53:52.324Z,0.50
2019-01-23T10:56:22.996Z,0.50
2019-01-23T10:58:53.744Z,0.50
2019-01-23T11:01:24.473Z,0.60
2019-01-23T11:03:55.201Z,0.70
2019-01-23T11:06:26.944Z,0.70
2019-01-23T11:08:57.829Z,0.70
2019-01-23T11:11:28.552Z,0.70
2019-01-23T11:13:59.281Z,0.80
2019-01-23T11:16:30.001Z,0.90
2019-01-23T11:19:00.749Z,0.80
2019-01-23T11:21:31.421Z,0.70
2019-01-23T11:24:02.101Z,0.70
2019-01-23T11:26:32.786Z,0.40
2019-01-23T11:29:04.509Z,0.60
2019-01-23T11:31:35.398Z,0.60
2019-01-23T11:34:06.295Z,0.60
2019-01-23T11:36:37.069Z,0.80
2019-01-23T11:39:10.134Z,0.60
2019-01-23T11:41:40.965Z,0.50
2019-01-23T11:44:11.917Z,0.60
2019-01-23T11:46:42.668Z,0.80
2019-01-23T11:49:13.478Z,0.70
2019-01-23T11:51:44.225Z,0.80
2019-01-23T11:54:14.859Z,0.90
2019-01-23T11:56:45.626Z,0.80
2019-01-23T11:59:16.513Z,0.80
2019-01-23T12:01:47.287Z,0.80
2019-01-23T12:04:18.073Z,0.70
2019-01-23T12:06:48.976Z,0.80
2019-01-23T12:09:19.686Z,0.90
2019-01-23T12:14:45.866Z,1.00
2019-01-23T12:17:16.546Z,1.10
2019-01-23T12:19:47.373Z,0.90
2019-01-23T12:22:18.009Z,0.80
2019-01-23T12:24:48.795Z,0.80
2019-01-23T12:27:19.472Z,0.80
2019-01-23T12:29:50.282Z,0.70
2019-01-23T12:32:20.962Z,0.60
2019-01-23T12:34:51.752Z,0.70
2019-01-23T12:37:22.519Z,0.40
2019-01-23T12:39:53.475Z,0.20
2019-01-23T12:42:24.192Z,0.10
2019-01-23T12:44:54.938Z,0.10
2019-01-23T12:47:25.526Z,0.10
2019-01-23T12:49:56.099Z,0.10
2019-01-23T12:52:26.808Z,0.00
2019-01-23T12:54:57.666Z,-0.10
2019-01-23T12:57:28.530Z,-0.30
2019-01-23T13:00:05.065Z,-0.30
2019-01-23T13:02:32.969Z,-0.40
2019-01-23T13:05:03.651Z,-0.40
2019-01-23T13:07:34.312Z,-0.50
2019-01-23T13:10:05.653Z,-0.50
2019-01-23T13:12:36.428Z,-0.50
2019-01-23T13:15:07.719Z,-0.50
2019-01-23T13:17:38.490Z,-0.60
2019-01-23T13:20:11.091Z,-0.80
2019-01-23T13:22:41.895Z,-0.80
2019-01-23T13:25:16.651Z,-1.00
2019-01-23T13:27:47.460Z,-1.30
2019-01-23T13:30:20.215Z,-1.20
2019-01-23T13:32:51.001Z,-1.40
2019-01-23T13:35:23.893Z,-1.60
2019-01-23T13:37:54.592Z,-1.90
2019-01-23T13:40:27.508Z,-2.10
2019-01-23T13:42:59.317Z,-2.20
2019-01-23T13:45:30.004Z,-2.20
2019-01-23T13:48:00.775Z,-2.10
2019-01-23T13:50:31.471Z,-2.10
2019-01-23T13:53:02.299Z,-2.10
2019-01-23T13:55:33.160Z,-2.10
2019-01-23T13:58:03.964Z,-2.00
2019-01-23T14:00:41.820Z,-2.20
2019-01-23T14:03:12.600Z,-2.50
2019-01-23T14:05:43.467Z,-2.50
2019-01-23T14:08:14.245Z,-2.60
2019-01-23T14:10:45.160Z,-2.70
2019-01-23T14:13:15.922Z,-2.80
2019-01-23T14:15:46.595Z,-2.90
2019-01-23T14:18:17.481Z,-2.90
2019-01-23T14:20:48.368Z,-2.90
2019-01-23T14:23:18.938Z,-3.00
2019-01-23T14:25:49.762Z,-2.90
2019-01-23T14:28:20.512Z,-3.00
2019-01-23T14:30:51.304Z,-3.10
2019-01-23T14:33:22.090Z,-3.40
2019-01-23T14:35:52.671Z,-3.30
2019-01-23T14:38:23.446Z,-3.20
2019-01-23T14:40:54.026Z,-3.30
2019-01-23T14:43:24.814Z,-3.30
2019-01-23T14:45:55.480Z,-3.40
2019-01-23T14:48:26.512Z,-3.60
2019-01-23T14:50:57.490Z,-3.60
2019-01-23T14:53:28.252Z,-3.60
2019-01-23T14:55:59.050Z,-3.60
2019-01-23T14:58:29.828Z,-3.70
2019-01-23T15:01:00.613Z,-3.80
2019-01-23T15:03:31.425Z,-3.70
2019-01-23T15:06:02.191Z,-3.70
2019-01-23T15:08:32.944Z,-3.90
2019-01-23T15:11:03.624Z,-3.80
2019-01-23T15:13:34.454Z,-3.80
2019-01-23T15:16:05.214Z,-3.80
2019-01-23T15:18:36.102Z,-3.90
2019-01-23T15:21:06.795Z,-3.80
2019-01-23T15:23:37.568Z,-3.80
2019-01-23T15:26:08.352Z,-3.70
2019-01-23T15:28:39.128Z,-3.80
2019-01-23T15:31:09.973Z,-3.80
2019-01-23T15:33:40.646Z,-3.80
2019-01-23T15:36:11.366Z,-3.70
2019-01-23T15:38:42.046Z,-3.80
2019-01-23T15:41:12.766Z,-3.90
2019-01-23T15:43:43.524Z,-3.90
2019-01-23T15:46:14.319Z,-3.90
2019-01-23T15:48:45.133Z,-3.90
2019-01-23T15:51:15.881Z,-3.90
2019-01-23T15:53:46.762Z,-3.90
2019-01-23T15:56:17.582Z,-3.80
2019-01-23T15:58:48.478Z,-3.80
2019-01-23T16:01:19.203Z,-3.80
2019-01-23T16:03:49.895Z,-3.90
2019-01-23T16:06:20.579Z,-3.90
2019-01-23T16:08:51.415Z,-3.90
2019-01-23T16:11:22.029Z,-3.90
2019-01-23T16:13:52.867Z,-3.90
2019-01-23T16:16:23.657Z,-3.90
2019-01-23T16:18:54.500Z,-3.90
2019-01-23T16:21:28.666Z,-3.90
2019-01-23T16:24:00.280Z,-3.90
2019-01-23T16:26:31.093Z,-3.80
2019-01-23T16:29:01.944Z,-3.80
2019-01-23T16:31:32.650Z,-3.90
2019-01-23T16:34:03.418Z,-3.80
2019-01-23T16:36:33.991Z,-3.80
2019-01-23T16:39:05.704Z,-3.80
2019-01-23T16:41:36.384Z,-3.90
2019-01-23T16:44:07.172Z,-3.90
2019-01-23T16:46:38.053Z,-3.90
2019-01-23T16:49:08.832Z,-3.90
2019-01-23T16:51:39.521Z,-3.80
2019-01-23T16:54:10.393Z,-3.90
2019-01-23T16:56:41.112Z,-3.90
2019-01-23T16:59:11.864Z,-3.90
2019-01-23T17:01:42.638Z,-3.90
2019-01-23T17:04:13.362Z,-4.00
2019-01-23T17:06:44.321Z,-4.00
2019-01-23T17:09:15.218Z,-4.00
2019-01-23T17:11:45.793Z,-4.00
2019-01-23T17:14:16.548Z,-4.00
2019-01-23T17:16:47.236Z,-4.00
2019-01-23T17:19:18.047Z,-4.00
2019-01-23T17:21:48.617Z,-4.00
2019-01-23T17:24:20.308Z,-3.90
2019-01-23T17:26:50.985Z,-4.00
2019-01-23T17:29:21.808Z,-4.00
2019-01-23T17:31:52.486Z,-3.90
2019-01-23T17:34:23.238Z,-4.00
2019-01-23T17:36:53.918Z,-3.90
2019-01-23T17:39:24.724Z,-3.90
2019-01-23T17:41:55.295Z,-3.90
2019-01-23T17:44:26.121Z,-3.90
2019-01-23T17:46:57.349Z,-3.90
2019-01-23T17:49:28.052Z,-3.90
2019-01-23T17:51:58.851Z,-3.90
2019-01-23T17:54:29.626Z,-3.80
2019-01-23T17:57:00.301Z,-3.90
2019-01-23T17:59:31.582Z,-3.90
2019-01-23T18:02:02.536Z,-3.80
2019-01-23T18:04:33.413Z,-3.80
2019-01-23T18:07:04.296Z,-3.70
2019-01-23T18:09:36.002Z,-3.70
2019-01-23T18:12:06.868Z,-3.70
2019-01-23T18:14:37.552Z,-3.70
2019-01-23T18:17:08.142Z,-3.70
2019-01-23T18:19:38.914Z,-3.70
2019-01-23T18:22:09.690Z,-3.70
2019-01-23T18:24:40.387Z,-3.70
2019-01-23T18:27:11.140Z,-3.70
2019-01-23T18:29:42.122Z,-3.70
2019-01-23T18:32:12.839Z,-3.70
2019-01-23T18:35:18.667Z,-3.80
2019-01-23T18:38:13.354Z,-3.80
2019-01-23T18:41:24.951Z,-3.80
2019-01-23T18:44:37.764Z,-3.80
2019-01-23T18:47:57.683Z,-3.80
2019-01-23T18:51:02.456Z,-3.70
2019-01-23T18:53:34.200Z,-3.80
2019-01-23T18:56:04.959Z,-3.80
2019-01-23T18:58:35.843Z,-3.80
2019-01-23T19:01:06.629Z,-3.80
2019-01-23T19:03:37.286Z,-3.80
2019-01-23T19:06:08.186Z,-3.80
2019-01-23T19:08:38.844Z,-3.70
2019-01-23T19:11:09.542Z,-3.70
2019-01-23T19:13:40.340Z,-3.70
2019-01-23T19:16:11.220Z,-3.70
2019-01-23T19:18:43.105Z,-3.70
2019-01-23T19:21:13.921Z,-3.70
2019-01-23T19:23:44.520Z,-3.80
2019-01-23T19:26:15.285Z,-3.80
2019-01-23T19:28:46.069Z,-3.80
2019-01-23T19:31:16.948Z,-3.70
2019-01-23T19:33:47.755Z,-3.70
2019-01-23T19:36:18.609Z,-3.70
2019-01-23T19:38:49.401Z,-3.70
2019-01-23T19:41:20.770Z,-3.70
2019-01-23T19:43:51.802Z,-3.70
2019-01-23T19:46:22.723Z,-3.70
2019-01-23T19:48:53.692Z,-3.70
2019-01-23T19:51:24.512Z,-3.70
2019-01-23T19:53:55.159Z,-3.70
2019-01-23T19:56:25.912Z,-3.70
2019-01-23T19:58:56.533Z,-3.60
2019-01-23T20:01:27.406Z,-3.60
2019-01-23T20:03:58.053Z,-3.50
2019-01-23T20:06:29.061Z,-3.50
2019-01-23T20:08:59.833Z,-3.50
2019-01-23T20:11:30.746Z,-3.50
2019-01-23T20:14:01.515Z,-3.50
2019-01-23T20:16:32.337Z,-3.50
2019-01-23T20:19:05.210Z,-3.50
2019-01-23T20:21:35.848Z,-3.50
2019-01-23T20:24:06.595Z,-3.60
2019-01-23T20:26:37.496Z,-3.60
2019-01-23T20:29:08.169Z,-3.60
2019-01-23T20:31:39.097Z,-3.60
2019-01-23T20:34:09.840Z,-3.50
2019-01-23T20:36:40.623Z,-3.60
2019-01-23T20:39:11.827Z,-3.60
2019-01-23T20:41:42.717Z,-3.60
2019-01-23T20:44:13.728Z,-3.60
2019-01-23T20:46:44.780Z,-3.60
2019-01-23T20:49:15.446Z,-3.70
2019-01-23T20:51:46.281Z,-3.70
2019-01-23T20:54:17.107Z,-3.60
2019-01-23T20:56:47.950Z,-3.60
2019-01-23T20:59:18.588Z,-3.60
2019-01-23T21:01:50.318Z,-3.60
2019-01-23T21:04:20.960Z,-3.60
2019-01-23T21:06:51.870Z,-3.60
2019-01-23T21:09:22.550Z,-3.50
2019-01-23T21:11:53.624Z,-3.60
2019-01-23T21:14:24.365Z,-3.50
2019-01-23T21:16:55.226Z,-3.50
2019-01-23T21:19:26.000Z,-3.50
2019-01-23T21:21:56.737Z,-3.50
2019-01-23T21:24:27.628Z,-3.50
2019-01-23T21:26:58.427Z,-3.50
2019-01-23T21:29:29.154Z,-3.50
2019-01-23T21:32:00.772Z,-3.40
2019-01-23T21:34:31.559Z,-3.40
2019-01-23T21:37:02.262Z,-3.30
2019-01-23T21:39:33.185Z,-3.30
2019-01-23T21:42:03.908Z,-3.30
2019-01-23T21:44:34.729Z,-3.20
2019-01-23T21:47:05.483Z,-3.20
2019-01-23T21:49:36.267Z,-3.10
2019-01-23T21:52:06.774Z,-3.20
2019-01-23T21:54:37.508Z,-3.10
2019-01-23T21:57:08.229Z,-3.20
2019-01-23T21:59:38.891Z,-3.20
2019-01-23T22:02:09.815Z,-3.10
2019-01-23T22:04:40.576Z,-3.10
2019-01-23T22:07:11.248Z,-3.20
2019-01-23T22:09:42.129Z,-3.20
2019-01-23T22:12:12.833Z,-3.20
2019-01-23T22:14:43.578Z,-3.20
2019-01-23T22:17:14.300Z,-3.10
2019-01-23T22:19:44.969Z,-3.10
2019-01-23T22:22:15.652Z,-3.10
2019-01-23T22:24:46.327Z,-3.10
2019-01-23T22:27:17.091Z,-3.00
2019-01-23T22:29:47.890Z,-3.00
2019-01-23T22:32:18.619Z,-3.00
2019-01-23T22:34:49.358Z,-3.00
2019-01-23T22:37:20.045Z,-3.00
2019-01-23T22:39:50.828Z,-3.00
2019-01-23T22:42:21.542Z,-3.00
2019-01-23T22:44:52.321Z,-3.00
2019-01-23T22:47:23.084Z,-3.00
2019-01-23T22:49:53.752Z,-3.00
2019-01-23T22:52:24.445Z,-3.00
2019-01-23T22:54:55.233Z,-2.90
2019-01-23T22:57:25.931Z,-2.90
2019-01-23T22:59:56.668Z,-2.90
2019-01-23T23:02:27.465Z,-2.90
2019-01-23T23:04:59.906Z,-2.90
2019-01-23T23:07:30.763Z,-2.90
2019-01-23T23:10:01.670Z,-2.80
2019-01-23T23:12:32.413Z,-2.80
2019-01-23T23:15:03.376Z,-2.90
2019-01-23T23:17:34.130Z,-2.90
2019-01-23T23:20:05.240Z,-2.90
2019-01-23T23:22:35.840Z,-2.90
2019-01-23T23:25:06.848Z,-2.80
2019-01-23T23:27:39.480Z,-2.90
2019-01-23T23:30:11.644Z,-2.90
2019-01-23T23:32:42.449Z,-3.00
2019-01-23T23:35:13.405Z,-2.90
2019-01-23T23:37:44.228Z,-2.90
2019-01-23T23:40:14.905Z,-2.90
2019-01-23T23:42:45.692Z,-2.90
2019-01-23T23:45:16.463Z,-2.90
2019-01-23T23:47:47.221Z,-2.90
2019-01-23T23:50:18.054Z,-2.90
2019-01-23T23:52:48.795Z,-2.90
2019-01-23T23:55:19.621Z,-2.90
2019-01-23T23:57:50.460Z,-2.80
